KPBI

Palm Beach International Airport

West Palm Beach, Florida, USA
METAR KPBI 181353Z 12011KT 10SM SCT024 BKN250 30/24 A3014 RMK AO2 SLP205 T03000244 $
Observed Flight Rules
Aug-18 @ 13:53 UTC (58 minutes ago) Visual Flight Rules
Wind Visibility Clouds
120° at 11 knots 10 miles
  • Scattered at 2,400' AGL
  • Broken at 25,000' AGL
Temperatures Readings
Current 30°C / 86°F
Dewpoint 24°C / 75°F
Humidity 70%
Altimeter 30.14" Hg
Pressure 1020.5 hPa
Elevation 6
METAR KPBI 181353Z 12011KT 10SM SCT024 BKN250 30/24 A3014 RMK AO2 SLP205 T03000244 $
Observed Flight Rules
Aug-18 @ 13:53 UTC
(58 minutes ago)
VFR
Wind Visibility
120° at 11 knots 10 miles
Clouds
  • Scattered at 2,400' AGL
  • Broken at 25,000' AGL
Temperature Dewpoint
30°C / 86°F 24°C / 75°F
Humidity Altimeter Pressure
70% 30.14" Hg 1020.5 hPa